sensor_id;sensor_type;location;lat;lon;timestamp;P1;durP1;ratioP1;P2;durP2;ratioP2
66298;SDS011;53098;47.658;8.578;2023-04-25T00:00:43;6.63;;;1.80;;
66298;SDS011;53098;47.658;8.578;2023-04-25T00:03:08;9.37;;;2.00;;
66298;SDS011;53098;47.658;8.578;2023-04-25T00:05:33;7.07;;;2.13;;
66298;SDS011;53098;47.658;8.578;2023-04-25T00:07:59;4.40;;;1.80;;
66298;SDS011;53098;47.658;8.578;2023-04-25T00:10:24;4.85;;;1.67;;
66298;SDS011;53098;47.658;8.578;2023-04-25T00:12:49;3.63;;;1.40;;
66298;SDS011;53098;47.658;8.578;2023-04-25T00:15:15;6.43;;;1.63;;
66298;SDS011;53098;47.658;8.578;2023-04-25T00:17:40;4.38;;;1.55;;
66298;SDS011;53098;47.658;8.578;2023-04-25T00:20:06;6.87;;;1.80;;
66298;SDS011;53098;47.658;8.578;2023-04-25T00:22:32;7.13;;;2.10;;
66298;SDS011;53098;47.658;8.578;2023-04-25T00:24:57;4.70;;;1.73;;
66298;SDS011;53098;47.658;8.578;2023-04-25T00:27:22;5.78;;;1.70;;
66298;SDS011;53098;47.658;8.578;2023-04-25T00:29:48;7.23;;;2.00;;
66298;SDS011;53098;47.658;8.578;2023-04-25T00:32:13;8.37;;;2.07;;
66298;SDS011;53098;47.658;8.578;2023-04-25T00:34:39;6.00;;;2.13;;
66298;SDS011;53098;47.658;8.578;2023-04-25T00:37:04;5.82;;;1.75;;
66298;SDS011;53098;47.658;8.578;2023-04-25T00:39:29;5.40;;;1.70;;
66298;SDS011;53098;47.658;8.578;2023-04-25T00:41:54;4.22;;;1.63;;
66298;SDS011;53098;47.658;8.578;2023-04-25T00:44:20;8.53;;;2.13;;
66298;SDS011;53098;47.658;8.578;2023-04-25T00:46:46;8.95;;;2.05;;
66298;SDS011;53098;47.658;8.578;2023-04-25T00:49:12;5.32;;;1.70;;
66298;SDS011;53098;47.658;8.578;2023-04-25T00:51:37;7.07;;;2.08;;
66298;SDS011;53098;47.658;8.578;2023-04-25T00:54:03;9.38;;;1.88;;
66298;SDS011;53098;47.658;8.578;2023-04-25T00:56:28;4.63;;;1.75;;
66298;SDS011;53098;47.658;8.578;2023-04-25T00:58:53;6.07;;;1.80;;
66298;SDS011;53098;47.658;8.578;2023-04-25T01:01:19;7.47;;;2.07;;
66298;SDS011;53098;47.658;8.578;2023-04-25T01:03:44;6.77;;;2.00;;
66298;SDS011;53098;47.658;8.578;2023-04-25T01:06:11;6.43;;;1.85;;
66298;SDS011;53098;47.658;8.578;2023-04-25T01:08:39;5.23;;;2.00;;
66298;SDS011;53098;47.658;8.578;2023-04-25T01:11:05;4.85;;;1.70;;
66298;SDS011;53098;47.658;8.578;2023-04-25T01:13:31;5.63;;;1.80;;
66298;SDS011;53098;47.658;8.578;2023-04-25T01:15:56;5.93;;;1.77;;
66298;SDS011;53098;47.658;8.578;2023-04-25T01:18:22;5.63;;;1.60;;
66298;SDS011;53098;47.658;8.578;2023-04-25T01:20:47;5.50;;;1.95;;
66298;SDS011;53098;47.658;8.578;2023-04-25T01:23:14;5.07;;;1.67;;
66298;SDS011;53098;47.658;8.578;2023-04-25T01:25:40;5.68;;;1.73;;
66298;SDS011;53098;47.658;8.578;2023-04-25T01:28:06;3.40;;;1.52;;
66298;SDS011;53098;47.658;8.578;2023-04-25T01:30:31;6.30;;;1.83;;
66298;SDS011;53098;47.658;8.578;2023-04-25T01:32:57;5.85;;;1.50;;
66298;SDS011;53098;47.658;8.578;2023-04-25T01:35:22;6.22;;;1.60;;
66298;SDS011;53098;47.658;8.578;2023-04-25T01:37:48;6.25;;;1.63;;
66298;SDS011;53098;47.658;8.578;2023-04-25T01:40:13;5.05;;;1.33;;
66298;SDS011;53098;47.658;8.578;2023-04-25T01:42:40;4.55;;;1.55;;
66298;SDS011;53098;47.658;8.578;2023-04-25T01:45:06;4.70;;;1.60;;
66298;SDS011;53098;47.658;8.578;2023-04-25T01:47:32;4.43;;;1.60;;
66298;SDS011;53098;47.658;8.578;2023-04-25T01:49:58;4.78;;;1.50;;
66298;SDS011;53098;47.658;8.578;2023-04-25T01:52:23;6.23;;;1.50;;
66298;SDS011;53098;47.658;8.578;2023-04-25T01:54:49;8.38;;;1.77;;
66298;SDS011;53098;47.658;8.578;2023-04-25T01:57:15;5.43;;;1.70;;
66298;SDS011;53098;47.658;8.578;2023-04-25T01:59:40;7.80;;;1.60;;
66298;SDS011;53098;47.658;8.578;2023-04-25T02:02:05;4.85;;;1.58;;
66298;SDS011;53098;47.658;8.578;2023-04-25T02:04:31;4.80;;;1.60;;
66298;SDS011;53098;47.658;8.578;2023-04-25T02:06:57;4.45;;;1.60;;
66298;SDS011;53098;47.658;8.578;2023-04-25T02:09:22;3.58;;;1.30;;
66298;SDS011;53098;47.658;8.578;2023-04-25T02:11:47;5.77;;;1.40;;
66298;SDS011;53098;47.658;8.578;2023-04-25T02:14:13;6.78;;;1.65;;
66298;SDS011;53098;47.658;8.578;2023-04-25T02:16:38;6.82;;;1.67;;
66298;SDS011;53098;47.658;8.578;2023-04-25T02:19:03;4.03;;;1.35;;
66298;SDS011;53098;47.658;8.578;2023-04-25T02:21:29;4.20;;;1.50;;
66298;SDS011;53098;47.658;8.578;2023-04-25T02:23:54;4.68;;;1.55;;
66298;SDS011;53098;47.658;8.578;2023-04-25T02:26:20;5.03;;;1.50;;
66298;SDS011;53098;47.658;8.578;2023-04-25T02:28:45;6.80;;;1.60;;
66298;SDS011;53098;47.658;8.578;2023-04-25T02:31:11;8.52;;;1.70;;
66298;SDS011;53098;47.658;8.578;2023-04-25T02:33:36;9.10;;;1.90;;
66298;SDS011;53098;47.658;8.578;2023-04-25T02:36:01;6.28;;;1.50;;
66298;SDS011;53098;47.658;8.578;2023-04-25T02:38:27;4.65;;;1.65;;
66298;SDS011;53098;47.658;8.578;2023-04-25T02:40:52;5.15;;;1.60;;
66298;SDS011;53098;47.658;8.578;2023-04-25T02:43:18;4.65;;;1.60;;
66298;SDS011;53098;47.658;8.578;2023-04-25T02:45:43;4.90;;;1.77;;
66298;SDS011;53098;47.658;8.578;2023-04-25T02:48:09;6.90;;;2.35;;
66298;SDS011;53098;47.658;8.578;2023-04-25T02:50:37;8.10;;;1.88;;
66298;SDS011;53098;47.658;8.578;2023-04-25T02:53:02;6.97;;;2.00;;
66298;SDS011;53098;47.658;8.578;2023-04-25T02:55:28;4.65;;;1.98;;
66298;SDS011;53098;47.658;8.578;2023-04-25T02:57:53;4.97;;;1.42;;
66298;SDS011;53098;47.658;8.578;2023-04-25T03:00:19;3.50;;;1.50;;
66298;SDS011;53098;47.658;8.578;2023-04-25T03:02:44;7.13;;;1.73;;
66298;SDS011;53098;47.658;8.578;2023-04-25T03:05:12;5.22;;;1.95;;
66298;SDS011;53098;47.658;8.578;2023-04-25T03:07:38;5.00;;;1.60;;
66298;SDS011;53098;47.658;8.578;2023-04-25T03:10:03;7.40;;;1.70;;
66298;SDS011;53098;47.658;8.578;2023-04-25T03:12:29;4.95;;;1.63;;
66298;SDS011;53098;47.658;8.578;2023-04-25T03:14:54;8.52;;;1.98;;
66298;SDS011;53098;47.658;8.578;2023-04-25T03:17:19;4.50;;;1.50;;
66298;SDS011;53098;47.658;8.578;2023-04-25T03:19:45;4.97;;;1.52;;
66298;SDS011;53098;47.658;8.578;2023-04-25T03:22:10;5.50;;;1.70;;
66298;SDS011;53098;47.658;8.578;2023-04-25T03:24:36;6.45;;;1.73;;
66298;SDS011;53098;47.658;8.578;2023-04-25T03:27:01;4.20;;;1.58;;
66298;SDS011;53098;47.658;8.578;2023-04-25T03:29:26;7.50;;;2.50;;
66298;SDS011;53098;47.658;8.578;2023-04-25T03:31:52;5.40;;;1.63;;
66298;SDS011;53098;47.658;8.578;2023-04-25T03:34:17;4.60;;;1.60;;
66298;SDS011;53098;47.658;8.578;2023-04-25T03:36:43;3.75;;;1.50;;
66298;SDS011;53098;47.658;8.578;2023-04-25T03:39:08;3.03;;;1.20;;
66298;SDS011;53098;47.658;8.578;2023-04-25T03:41:33;3.45;;;1.40;;
66298;SDS011;53098;47.658;8.578;2023-04-25T03:43:59;5.53;;;1.67;;
66298;SDS011;53098;47.658;8.578;2023-04-25T03:46:24;5.35;;;2.28;;
66298;SDS011;53098;47.658;8.578;2023-04-25T03:48:49;8.20;;;1.77;;
66298;SDS011;53098;47.658;8.578;2023-04-25T03:51:15;3.65;;;1.90;;
66298;SDS011;53098;47.658;8.578;2023-04-25T03:53:40;7.22;;;1.73;;
66298;SDS011;53098;47.658;8.578;2023-04-25T03:56:06;3.92;;;1.65;;
66298;SDS011;53098;47.658;8.578;2023-04-25T03:58:31;4.55;;;1.70;;
66298;SDS011;53098;47.658;8.578;2023-04-25T04:00:57;7.97;;;2.00;;
66298;SDS011;53098;47.658;8.578;2023-04-25T04:03:22;5.85;;;2.20;;
66298;SDS011;53098;47.658;8.578;2023-04-25T04:05:47;6.47;;;1.70;;
66298;SDS011;53098;47.658;8.578;2023-04-25T04:08:13;4.65;;;1.50;;
66298;SDS011;53098;47.658;8.578;2023-04-25T04:10:38;7.75;;;1.92;;
66298;SDS011;53098;47.658;8.578;2023-04-25T04:13:04;5.47;;;1.67;;
66298;SDS011;53098;47.658;8.578;2023-04-25T04:15:29;5.67;;;1.80;;
66298;SDS011;53098;47.658;8.578;2023-04-25T04:17:54;9.93;;;1.65;;
66298;SDS011;53098;47.658;8.578;2023-04-25T04:20:20;5.55;;;1.85;;
66298;SDS011;53098;47.658;8.578;2023-04-25T04:22:45;5.85;;;2.05;;
66298;SDS011;53098;47.658;8.578;2023-04-25T04:25:11;4.40;;;1.73;;
66298;SDS011;53098;47.658;8.578;2023-04-25T04:27:36;4.97;;;1.30;;
66298;SDS011;53098;47.658;8.578;2023-04-25T04:30:01;7.15;;;1.80;;
66298;SDS011;53098;47.658;8.578;2023-04-25T04:32:27;6.20;;;1.98;;
66298;SDS011;53098;47.658;8.578;2023-04-25T04:34:53;6.25;;;1.63;;
66298;SDS011;53098;47.658;8.578;2023-04-25T04:37:18;8.35;;;1.95;;
66298;SDS011;53098;47.658;8.578;2023-04-25T04:39:43;7.80;;;2.10;;
66298;SDS011;53098;47.658;8.578;2023-04-25T04:42:09;6.43;;;2.05;;
66298;SDS011;53098;47.658;8.578;2023-04-25T04:44:34;6.35;;;1.90;;
66298;SDS011;53098;47.658;8.578;2023-04-25T04:47:00;5.07;;;2.00;;
66298;SDS011;53098;47.658;8.578;2023-04-25T04:49:25;6.90;;;2.40;;
66298;SDS011;53098;47.658;8.578;2023-04-25T04:51:50;4.73;;;1.70;;
66298;SDS011;53098;47.658;8.578;2023-04-25T04:54:16;4.90;;;1.67;;
66298;SDS011;53098;47.658;8.578;2023-04-25T04:56:42;7.50;;;1.98;;
66298;SDS011;53098;47.658;8.578;2023-04-25T04:59:07;13.90;;;2.40;;
66298;SDS011;53098;47.658;8.578;2023-04-25T05:01:32;6.37;;;2.13;;
66298;SDS011;53098;47.658;8.578;2023-04-25T05:03:58;6.38;;;1.95;;
66298;SDS011;53098;47.658;8.578;2023-04-25T05:06:23;6.97;;;2.10;;
66298;SDS011;53098;47.658;8.578;2023-04-25T05:08:49;7.28;;;2.67;;
66298;SDS011;53098;47.658;8.578;2023-04-25T05:11:14;4.40;;;1.85;;
66298;SDS011;53098;47.658;8.578;2023-04-25T05:13:40;8.50;;;2.90;;
66298;SDS011;53098;47.658;8.578;2023-04-25T05:16:05;5.37;;;1.90;;
66298;SDS011;53098;47.658;8.578;2023-04-25T05:18:32;8.07;;;2.47;;
66298;SDS011;53098;47.658;8.578;2023-04-25T05:20:57;10.25;;;2.35;;
66298;SDS011;53098;47.658;8.578;2023-04-25T05:23:22;3.85;;;1.65;;
66298;SDS011;53098;47.658;8.578;2023-04-25T05:25:48;8.02;;;2.15;;
66298;SDS011;53098;47.658;8.578;2023-04-25T05:28:13;5.55;;;2.20;;
66298;SDS011;53098;47.658;8.578;2023-04-25T05:30:39;7.07;;;2.33;;
66298;SDS011;53098;47.658;8.578;2023-04-25T05:33:04;8.38;;;2.15;;
66298;SDS011;53098;47.658;8.578;2023-04-25T05:35:30;8.52;;;2.25;;
66298;SDS011;53098;47.658;8.578;2023-04-25T05:37:55;6.65;;;1.95;;
66298;SDS011;53098;47.658;8.578;2023-04-25T05:40:21;6.78;;;1.90;;
66298;SDS011;53098;47.658;8.578;2023-04-25T05:42:46;5.80;;;2.42;;
66298;SDS011;53098;47.658;8.578;2023-04-25T05:45:11;5.47;;;1.75;;
66298;SDS011;53098;47.658;8.578;2023-04-25T05:47:37;4.63;;;1.83;;
66298;SDS011;53098;47.658;8.578;2023-04-25T05:50:02;4.07;;;1.73;;
66298;SDS011;53098;47.658;8.578;2023-04-25T05:52:28;5.25;;;1.85;;
66298;SDS011;53098;47.658;8.578;2023-04-25T05:54:53;4.60;;;1.73;;
66298;SDS011;53098;47.658;8.578;2023-04-25T05:57:19;11.80;;;1.97;;
66298;SDS011;53098;47.658;8.578;2023-04-25T05:59:45;8.73;;;1.95;;
66298;SDS011;53098;47.658;8.578;2023-04-25T06:02:10;14.70;;;2.13;;
66298;SDS011;53098;47.658;8.578;2023-04-25T06:04:35;7.03;;;2.17;;
66298;SDS011;53098;47.658;8.578;2023-04-25T06:07:01;5.00;;;1.80;;
66298;SDS011;53098;47.658;8.578;2023-04-25T06:09:26;8.13;;;2.50;;
66298;SDS011;53098;47.658;8.578;2023-04-25T06:11:51;9.97;;;2.63;;
66298;SDS011;53098;47.658;8.578;2023-04-25T06:14:16;6.27;;;2.13;;
66298;SDS011;53098;47.658;8.578;2023-04-25T06:16:42;10.17;;;2.63;;
66298;SDS011;53098;47.658;8.578;2023-04-25T06:19:07;7.10;;;2.47;;
66298;SDS011;53098;47.658;8.578;2023-04-25T06:21:32;6.00;;;2.00;;
66298;SDS011;53098;47.658;8.578;2023-04-25T06:23:57;8.20;;;2.63;;
66298;SDS011;53098;47.658;8.578;2023-04-25T06:26:23;5.90;;;1.90;;
66298;SDS011;53098;47.658;8.578;2023-04-25T06:28:48;11.63;;;2.93;;
66298;SDS011;53098;47.658;8.578;2023-04-25T06:31:13;6.63;;;2.63;;
66298;SDS011;53098;47.658;8.578;2023-04-25T06:33:39;9.30;;;3.17;;
66298;SDS011;53098;47.658;8.578;2023-04-25T06:36:05;7.77;;;2.47;;
66298;SDS011;53098;47.658;8.578;2023-04-25T06:38:30;8.07;;;2.30;;
66298;SDS011;53098;47.658;8.578;2023-04-25T06:40:55;8.37;;;2.60;;
66298;SDS011;53098;47.658;8.578;2023-04-25T06:43:20;6.60;;;2.63;;
66298;SDS011;53098;47.658;8.578;2023-04-25T06:45:46;5.60;;;2.00;;
66298;SDS011;53098;47.658;8.578;2023-04-25T06:48:11;9.60;;;2.70;;
66298;SDS011;53098;47.658;8.578;2023-04-25T06:50:36;8.00;;;3.10;;
66298;SDS011;53098;47.658;8.578;2023-04-25T06:53:01;5.30;;;2.23;;
66298;SDS011;53098;47.658;8.578;2023-04-25T06:55:27;4.83;;;2.27;;
66298;SDS011;53098;47.658;8.578;2023-04-25T06:57:52;6.50;;;2.72;;
66298;SDS011;53098;47.658;8.578;2023-04-25T07:00:17;7.07;;;2.40;;
66298;SDS011;53098;47.658;8.578;2023-04-25T07:02:43;5.40;;;2.30;;
66298;SDS011;53098;47.658;8.578;2023-04-25T07:05:08;5.40;;;1.83;;
66298;SDS011;53098;47.658;8.578;2023-04-25T07:07:33;4.13;;;1.80;;
66298;SDS011;53098;47.658;8.578;2023-04-25T07:09:59;4.73;;;1.93;;
66298;SDS011;53098;47.658;8.578;2023-04-25T07:12:24;3.87;;;1.63;;
66298;SDS011;53098;47.658;8.578;2023-04-25T07:14:49;4.57;;;1.73;;
66298;SDS011;53098;47.658;8.578;2023-04-25T07:17:14;3.63;;;1.40;;
66298;SDS011;53098;47.658;8.578;2023-04-25T07:19:40;6.13;;;2.00;;
66298;SDS011;53098;47.658;8.578;2023-04-25T07:22:05;4.17;;;1.90;;
66298;SDS011;53098;47.658;8.578;2023-04-25T07:24:31;5.55;;;2.25;;
66298;SDS011;53098;47.658;8.578;2023-04-25T07:26:56;7.60;;;2.50;;
66298;SDS011;53098;47.658;8.578;2023-04-25T07:29:21;6.37;;;1.70;;
66298;SDS011;53098;47.658;8.578;2023-04-25T07:31:47;7.90;;;3.45;;
66298;SDS011;53098;47.658;8.578;2023-04-25T07:34:12;4.53;;;1.70;;
66298;SDS011;53098;47.658;8.578;2023-04-25T07:36:37;3.73;;;1.70;;
66298;SDS011;53098;47.658;8.578;2023-04-25T07:39:02;4.17;;;1.57;;
66298;SDS011;53098;47.658;8.578;2023-04-25T07:41:28;2.47;;;1.20;;
66298;SDS011;53098;47.658;8.578;2023-04-25T07:43:53;6.03;;;2.30;;
66298;SDS011;53098;47.658;8.578;2023-04-25T07:46:18;4.63;;;2.00;;
66298;SDS011;53098;47.658;8.578;2023-04-25T07:48:44;3.73;;;1.20;;
66298;SDS011;53098;47.658;8.578;2023-04-25T07:51:09;10.77;;;3.63;;
66298;SDS011;53098;47.658;8.578;2023-04-25T07:53:34;4.30;;;1.60;;
66298;SDS011;53098;47.658;8.578;2023-04-25T07:55:59;2.57;;;1.40;;
66298;SDS011;53098;47.658;8.578;2023-04-25T07:58:25;2.63;;;1.10;;
66298;SDS011;53098;47.658;8.578;2023-04-25T08:00:50;3.57;;;1.70;;
66298;SDS011;53098;47.658;8.578;2023-04-25T08:03:15;3.40;;;1.37;;
66298;SDS011;53098;47.658;8.578;2023-04-25T08:05:40;4.60;;;2.33;;
66298;SDS011;53098;47.658;8.578;2023-04-25T08:08:06;3.67;;;1.50;;
66298;SDS011;53098;47.658;8.578;2023-04-25T08:10:31;4.37;;;1.73;;
66298;SDS011;53098;47.658;8.578;2023-04-25T08:12:56;3.42;;;1.55;;
66298;SDS011;53098;47.658;8.578;2023-04-25T08:15:22;4.80;;;1.87;;
66298;SDS011;53098;47.658;8.578;2023-04-25T08:17:47;3.90;;;1.90;;
66298;SDS011;53098;47.658;8.578;2023-04-25T08:20:12;4.40;;;1.90;;
66298;SDS011;53098;47.658;8.578;2023-04-25T08:22:37;6.73;;;2.13;;
66298;SDS011;53098;47.658;8.578;2023-04-25T08:25:03;2.57;;;1.50;;
66298;SDS011;53098;47.658;8.578;2023-04-25T08:27:28;3.90;;;1.63;;
66298;SDS011;53098;47.658;8.578;2023-04-25T08:29:54;5.72;;;2.22;;
66298;SDS011;53098;47.658;8.578;2023-04-25T08:32:19;3.67;;;1.80;;
66298;SDS011;53098;47.658;8.578;2023-04-25T08:34:45;5.00;;;2.33;;
66298;SDS011;53098;47.658;8.578;2023-04-25T08:37:10;5.30;;;2.28;;
66298;SDS011;53098;47.658;8.578;2023-04-25T08:39:36;6.63;;;2.10;;
66298;SDS011;53098;47.658;8.578;2023-04-25T08:42:05;4.53;;;1.92;;
66298;SDS011;53098;47.658;8.578;2023-04-25T08:44:30;5.50;;;1.55;;
66298;SDS011;53098;47.658;8.578;2023-04-25T08:46:57;4.25;;;1.58;;
66298;SDS011;53098;47.658;8.578;2023-04-25T08:49:22;4.93;;;1.70;;
66298;SDS011;53098;47.658;8.578;2023-04-25T08:51:48;3.78;;;1.48;;
66298;SDS011;53098;47.658;8.578;2023-04-25T08:54:14;2.25;;;1.23;;
66298;SDS011;53098;47.658;8.578;2023-04-25T08:56:45;2.80;;;1.35;;
66298;SDS011;53098;47.658;8.578;2023-04-25T08:59:12;4.60;;;1.90;;
66298;SDS011;53098;47.658;8.578;2023-04-25T09:01:37;4.07;;;1.52;;
66298;SDS011;53098;47.658;8.578;2023-04-25T09:04:02;2.00;;;1.20;;
66298;SDS011;53098;47.658;8.578;2023-04-25T09:06:31;4.60;;;1.40;;
66298;SDS011;53098;47.658;8.578;2023-04-25T09:09:01;1.55;;;1.10;;
66298;SDS011;53098;47.658;8.578;2023-04-25T09:11:27;1.70;;;1.20;;
66298;SDS011;53098;47.658;8.578;2023-04-25T09:13:58;2.37;;;1.00;;
66298;SDS011;53098;47.658;8.578;2023-04-25T09:16:34;3.55;;;1.33;;
66298;SDS011;53098;47.658;8.578;2023-04-25T09:19:00;2.55;;;1.20;;
66298;SDS011;53098;47.658;8.578;2023-04-25T09:21:25;3.40;;;1.50;;
66298;SDS011;53098;47.658;8.578;2023-04-25T09:23:50;3.50;;;1.40;;
66298;SDS011;53098;47.658;8.578;2023-04-25T09:26:16;3.20;;;1.38;;
66298;SDS011;53098;47.658;8.578;2023-04-25T09:28:42;1.40;;;0.85;;
66298;SDS011;53098;47.658;8.578;2023-04-25T09:31:09;1.75;;;0.80;;
66298;SDS011;53098;47.658;8.578;2023-04-25T09:33:35;3.08;;;1.02;;
66298;SDS011;53098;47.658;8.578;2023-04-25T09:36:04;1.20;;;0.75;;
66298;SDS011;53098;47.658;8.578;2023-04-25T09:38:31;2.15;;;1.10;;
66298;SDS011;53098;47.658;8.578;2023-04-25T09:40:57;1.90;;;0.90;;
66298;SDS011;53098;47.658;8.578;2023-04-25T09:43:23;3.03;;;1.20;;
66298;SDS011;53098;47.658;8.578;2023-04-25T09:45:49;2.53;;;0.93;;
66298;SDS011;53098;47.658;8.578;2023-04-25T09:48:18;2.35;;;1.10;;
66298;SDS011;53098;47.658;8.578;2023-04-25T09:50:44;1.95;;;1.10;;
66298;SDS011;53098;47.658;8.578;2023-04-25T09:53:09;1.67;;;0.80;;
66298;SDS011;53098;47.658;8.578;2023-04-25T09:55:35;2.75;;;1.40;;
66298;SDS011;53098;47.658;8.578;2023-04-25T09:58:05;2.13;;;0.80;;
66298;SDS011;53098;47.658;8.578;2023-04-25T10:00:30;1.77;;;0.95;;
66298;SDS011;53098;47.658;8.578;2023-04-25T10:02:57;2.00;;;0.80;;
66298;SDS011;53098;47.658;8.578;2023-04-25T10:05:22;0.85;;;0.63;;
66298;SDS011;53098;47.658;8.578;2023-04-25T10:07:48;2.25;;;0.85;;
66298;SDS011;53098;47.658;8.578;2023-04-25T10:10:13;1.17;;;0.63;;
66298;SDS011;53098;47.658;8.578;2023-04-25T10:12:39;1.85;;;0.77;;
66298;SDS011;53098;47.658;8.578;2023-04-25T10:15:05;5.00;;;0.95;;
66298;SDS011;53098;47.658;8.578;2023-04-25T10:17:31;3.00;;;0.77;;
66298;SDS011;53098;47.658;8.578;2023-04-25T10:19:56;1.98;;;0.70;;
66298;SDS011;53098;47.658;8.578;2023-04-25T10:22:35;2.25;;;1.27;;
66298;SDS011;53098;47.658;8.578;2023-04-25T10:25:01;2.03;;;0.77;;
66298;SDS011;53098;47.658;8.578;2023-04-25T10:27:27;1.42;;;0.68;;
66298;SDS011;53098;47.658;8.578;2023-04-25T10:32:26;1.08;;;0.60;;
66298;SDS011;53098;47.658;8.578;2023-04-25T10:34:52;2.72;;;0.47;;
66298;SDS011;53098;47.658;8.578;2023-04-25T10:37:17;0.87;;;0.50;;
66298;SDS011;53098;47.658;8.578;2023-04-25T10:39:43;2.47;;;0.90;;
66298;SDS011;53098;47.658;8.578;2023-04-25T10:42:09;2.60;;;0.60;;
66298;SDS011;53098;47.658;8.578;2023-04-25T10:44:34;0.87;;;0.60;;
66298;SDS011;53098;47.658;8.578;2023-04-25T10:47:01;0.95;;;0.73;;
66298;SDS011;53098;47.658;8.578;2023-04-25T10:57:04;1.90;;;0.70;;
66298;SDS011;53098;47.658;8.578;2023-04-25T10:59:29;0.93;;;0.53;;
66298;SDS011;53098;47.658;8.578;2023-04-25T11:01:55;2.78;;;0.77;;
66298;SDS011;53098;47.658;8.578;2023-04-25T11:04:25;2.90;;;1.00;;
66298;SDS011;53098;47.658;8.578;2023-04-25T11:09:27;2.88;;;1.10;;
66298;SDS011;53098;47.658;8.578;2023-04-25T11:11:55;1.58;;;0.88;;
66298;SDS011;53098;47.658;8.578;2023-04-25T11:14:21;2.60;;;0.80;;
66298;SDS011;53098;47.658;8.578;2023-04-25T11:16:46;0.82;;;0.63;;
66298;SDS011;53098;47.658;8.578;2023-04-25T11:19:11;0.97;;;0.67;;
66298;SDS011;53098;47.658;8.578;2023-04-25T11:21:37;3.73;;;0.70;;
66298;SDS011;53098;47.658;8.578;2023-04-25T11:24:02;1.77;;;0.65;;
66298;SDS011;53098;47.658;8.578;2023-04-25T11:26:28;2.72;;;0.93;;
66298;SDS011;53098;47.658;8.578;2023-04-25T11:28:58;0.55;;;0.50;;
66298;SDS011;53098;47.658;8.578;2023-04-25T11:31:24;2.13;;;0.90;;
66298;SDS011;53098;47.658;8.578;2023-04-25T11:33:49;1.10;;;0.45;;
66298;SDS011;53098;47.658;8.578;2023-04-25T11:36:14;2.53;;;0.60;;
66298;SDS011;53098;47.658;8.578;2023-04-25T11:38:40;1.02;;;0.55;;
66298;SDS011;53098;47.658;8.578;2023-04-25T11:41:05;0.40;;;0.40;;
66298;SDS011;53098;47.658;8.578;2023-04-25T11:43:31;2.47;;;0.82;;
66298;SDS011;53098;47.658;8.578;2023-04-25T11:45:56;1.17;;;0.40;;
66298;SDS011;53098;47.658;8.578;2023-04-25T11:48:22;0.80;;;0.40;;
66298;SDS011;53098;47.658;8.578;2023-04-25T11:50:47;1.02;;;0.70;;
66298;SDS011;53098;47.658;8.578;2023-04-25T11:53:13;0.85;;;0.60;;
66298;SDS011;53098;47.658;8.578;2023-04-25T11:55:38;0.85;;;0.52;;
66298;SDS011;53098;47.658;8.578;2023-04-25T11:58:04;1.38;;;0.80;;
66298;SDS011;53098;47.658;8.578;2023-04-25T12:00:29;0.50;;;0.50;;
66298;SDS011;53098;47.658;8.578;2023-04-25T12:02:55;1.00;;;0.50;;
66298;SDS011;53098;47.658;8.578;2023-04-25T12:05:30;0.63;;;0.47;;
66298;SDS011;53098;47.658;8.578;2023-04-25T12:07:56;2.10;;;0.55;;
66298;SDS011;53098;47.658;8.578;2023-04-25T12:10:21;0.75;;;0.60;;
66298;SDS011;53098;47.658;8.578;2023-04-25T12:12:49;3.08;;;0.65;;
66298;SDS011;53098;47.658;8.578;2023-04-25T12:17:40;1.92;;;0.80;;
66298;SDS011;53098;47.658;8.578;2023-04-25T12:20:07;3.70;;;0.80;;
66298;SDS011;53098;47.658;8.578;2023-04-25T12:22:32;1.60;;;0.60;;
66298;SDS011;53098;47.658;8.578;2023-04-25T12:24:57;1.87;;;1.00;;
66298;SDS011;53098;47.658;8.578;2023-04-25T12:27:23;1.87;;;0.77;;
66298;SDS011;53098;47.658;8.578;2023-04-25T12:29:53;1.92;;;0.90;;
66298;SDS011;53098;47.658;8.578;2023-04-25T12:32:19;1.17;;;0.70;;
66298;SDS011;53098;47.658;8.578;2023-04-25T12:34:44;3.07;;;1.00;;
66298;SDS011;53098;47.658;8.578;2023-04-25T12:37:09;1.43;;;0.67;;
66298;SDS011;53098;47.658;8.578;2023-04-25T12:39:35;1.60;;;1.00;;
66298;SDS011;53098;47.658;8.578;2023-04-25T12:42:00;2.55;;;0.63;;
66298;SDS011;53098;47.658;8.578;2023-04-25T12:44:25;0.87;;;0.70;;
66298;SDS011;53098;47.658;8.578;2023-04-25T12:46:50;0.87;;;0.60;;
66298;SDS011;53098;47.658;8.578;2023-04-25T12:49:16;2.43;;;0.80;;
66298;SDS011;53098;47.658;8.578;2023-04-25T12:51:41;2.43;;;0.83;;
66298;SDS011;53098;47.658;8.578;2023-04-25T12:54:07;1.42;;;0.80;;
66298;SDS011;53098;47.658;8.578;2023-04-25T12:56:32;1.85;;;0.80;;
66298;SDS011;53098;47.658;8.578;2023-04-25T12:58:58;7.10;;;1.10;;
66298;SDS011;53098;47.658;8.578;2023-04-25T13:01:24;1.77;;;0.75;;
66298;SDS011;53098;47.658;8.578;2023-04-25T13:03:49;3.60;;;1.23;;
66298;SDS011;53098;47.658;8.578;2023-04-25T13:06:15;5.20;;;1.97;;
66298;SDS011;53098;47.658;8.578;2023-04-25T13:08:40;4.70;;;1.42;;
66298;SDS011;53098;47.658;8.578;2023-04-25T13:11:06;3.25;;;1.20;;
66298;SDS011;53098;47.658;8.578;2023-04-25T13:13:31;3.27;;;1.13;;
66298;SDS011;53098;47.658;8.578;2023-04-25T13:15:56;2.13;;;0.80;;
66298;SDS011;53098;47.658;8.578;2023-04-25T13:18:22;5.47;;;1.50;;
66298;SDS011;53098;47.658;8.578;2023-04-25T13:20:47;3.60;;;1.10;;
66298;SDS011;53098;47.658;8.578;2023-04-25T13:23:12;2.07;;;0.90;;
66298;SDS011;53098;47.658;8.578;2023-04-25T13:25:37;2.57;;;1.27;;
66298;SDS011;53098;47.658;8.578;2023-04-25T13:28:03;2.93;;;1.00;;
66298;SDS011;53098;47.658;8.578;2023-04-25T13:30:28;1.17;;;0.70;;
66298;SDS011;53098;47.658;8.578;2023-04-25T13:32:53;1.20;;;0.90;;
66298;SDS011;53098;47.658;8.578;2023-04-25T13:35:19;5.68;;;1.00;;
66298;SDS011;53098;47.658;8.578;2023-04-25T13:37:44;0.93;;;0.70;;
66298;SDS011;53098;47.658;8.578;2023-04-25T13:40:10;2.17;;;0.80;;
66298;SDS011;53098;47.658;8.578;2023-04-25T13:42:36;2.17;;;1.00;;
66298;SDS011;53098;47.658;8.578;2023-04-25T13:45:02;2.58;;;0.63;;
66298;SDS011;53098;47.658;8.578;2023-04-25T13:47:27;2.67;;;0.85;;
66298;SDS011;53098;47.658;8.578;2023-04-25T13:49:53;4.13;;;1.37;;
66298;SDS011;53098;47.658;8.578;2023-04-25T13:52:18;2.70;;;0.90;;
66298;SDS011;53098;47.658;8.578;2023-04-25T13:54:43;1.88;;;0.90;;
66298;SDS011;53098;47.658;8.578;2023-04-25T13:57:08;1.43;;;0.70;;
66298;SDS011;53098;47.658;8.578;2023-04-25T13:59:34;2.97;;;1.17;;
66298;SDS011;53098;47.658;8.578;2023-04-25T14:01:59;3.17;;;1.00;;
66298;SDS011;53098;47.658;8.578;2023-04-25T14:04:24;2.43;;;0.70;;
66298;SDS011;53098;47.658;8.578;2023-04-25T14:06:50;3.13;;;1.00;;
66298;SDS011;53098;47.658;8.578;2023-04-25T14:09:15;2.10;;;0.85;;
66298;SDS011;53098;47.658;8.578;2023-04-25T14:11:41;1.63;;;0.70;;
66298;SDS011;53098;47.658;8.578;2023-04-25T14:14:06;1.83;;;0.73;;
66298;SDS011;53098;47.658;8.578;2023-04-25T14:16:31;2.23;;;0.90;;
66298;SDS011;53098;47.658;8.578;2023-04-25T14:19:00;0.80;;;0.60;;
66298;SDS011;53098;47.658;8.578;2023-04-25T14:21:25;3.83;;;0.95;;
66298;SDS011;53098;47.658;8.578;2023-04-25T14:23:50;3.50;;;0.80;;
66298;SDS011;53098;47.658;8.578;2023-04-25T14:26:16;4.07;;;1.07;;
66298;SDS011;53098;47.658;8.578;2023-04-25T14:28:41;4.00;;;1.07;;
66298;SDS011;53098;47.658;8.578;2023-04-25T14:31:06;3.38;;;1.25;;
66298;SDS011;53098;47.658;8.578;2023-04-25T14:33:32;6.47;;;1.33;;
66298;SDS011;53098;47.658;8.578;2023-04-25T14:35:57;3.43;;;1.00;;
66298;SDS011;53098;47.658;8.578;2023-04-25T14:38:22;2.03;;;1.23;;
66298;SDS011;53098;47.658;8.578;2023-04-25T14:40:47;3.97;;;1.20;;
66298;SDS011;53098;47.658;8.578;2023-04-25T14:43:12;2.73;;;1.13;;
66298;SDS011;53098;47.658;8.578;2023-04-25T14:45:38;2.83;;;1.10;;
66298;SDS011;53098;47.658;8.578;2023-04-25T14:48:03;3.27;;;0.97;;
66298;SDS011;53098;47.658;8.578;2023-04-25T14:50:28;2.93;;;1.10;;
66298;SDS011;53098;47.658;8.578;2023-04-25T14:52:54;4.47;;;1.40;;